createdAt,value
2018-06-04T00:00:44.739Z,15.64
2018-06-04T00:03:11.869Z,15.67
2018-06-04T00:05:38.875Z,15.58
2018-06-04T00:08:05.966Z,15.57
2018-06-04T00:10:32.994Z,15.59
2018-06-04T00:13:00.090Z,15.69
2018-06-04T00:15:27.110Z,15.66
2018-06-04T00:17:54.112Z,15.73
2018-06-04T00:20:21.193Z,15.88
2018-06-04T00:22:48.278Z,15.68
2018-06-04T00:25:15.329Z,15.59
2018-06-04T00:27:42.419Z,15.79
2018-06-04T00:30:09.504Z,15.61
2018-06-04T00:32:36.606Z,15.58
2018-06-04T00:35:03.710Z,15.57
2018-06-04T00:37:30.797Z,15.39
2018-06-04T00:39:57.822Z,15.41
2018-06-04T00:42:24.820Z,15.46
2018-06-04T00:44:51.914Z,15.50
2018-06-04T00:47:19.018Z,15.37
2018-06-04T00:49:46.037Z,15.39
2018-06-04T00:52:13.140Z,15.42
2018-06-04T00:54:40.139Z,15.49
2018-06-04T00:57:07.235Z,15.52
2018-06-04T00:59:34.253Z,15.47
2018-06-04T01:02:01.345Z,15.45
2018-06-04T01:04:28.352Z,15.49
2018-06-04T01:06:55.462Z,15.53
2018-06-04T01:09:22.583Z,15.70
2018-06-04T01:11:49.589Z,15.73
2018-06-04T01:14:16.624Z,15.86
2018-06-04T01:16:43.641Z,15.88
2018-06-04T01:19:10.647Z,15.82
2018-06-04T01:21:37.650Z,15.98
2018-06-04T01:24:04.690Z,16.01
2018-06-04T01:29:05.723Z,16.02
2018-06-04T01:31:32.738Z,15.96
2018-06-04T01:33:59.870Z,15.93
2018-06-04T01:36:26.970Z,15.85
2018-06-04T01:38:53.978Z,15.91
2018-06-04T01:41:20.989Z,15.87
2018-06-04T01:43:48.085Z,15.81
2018-06-04T01:46:15.099Z,15.81
2018-06-04T01:48:42.134Z,15.82
2018-06-04T01:51:09.168Z,15.85
2018-06-04T01:53:36.263Z,15.90
2018-06-04T01:56:03.366Z,15.82
2018-06-04T01:58:30.457Z,15.86
2018-06-04T02:00:57.509Z,15.80
2018-06-04T02:03:24.678Z,15.82
2018-06-04T02:05:51.701Z,15.91
2018-06-04T02:08:19.096Z,15.91
2018-06-04T02:10:46.185Z,15.93
2018-06-04T02:13:13.277Z,15.93
2018-06-04T02:15:40.297Z,15.91
2018-06-04T02:18:07.309Z,15.89
2018-06-04T02:20:34.305Z,15.93
2018-06-04T02:23:01.407Z,15.97
2018-06-04T02:25:28.435Z,15.93
2018-06-04T02:27:55.454Z,15.95
2018-06-04T02:30:22.557Z,15.98
2018-06-04T02:32:49.554Z,15.99
2018-06-04T02:35:16.587Z,16.01
2018-06-04T02:37:43.689Z,16.01
2018-06-04T02:40:10.694Z,15.99
2018-06-04T02:42:37.743Z,15.98
2018-06-04T02:45:04.766Z,15.97
2018-06-04T02:47:31.770Z,15.96
2018-06-04T02:49:58.850Z,15.98
2018-06-04T02:52:25.942Z,15.95
2018-06-04T02:54:52.961Z,16.00
2018-06-04T02:57:19.977Z,16.01
2018-06-04T02:59:47.145Z,16.05
2018-06-04T03:02:14.206Z,16.08
2018-06-04T03:04:41.233Z,16.06
2018-06-04T03:07:08.263Z,16.10
2018-06-04T03:09:35.298Z,16.09
2018-06-04T03:12:02.356Z,16.06
2018-06-04T03:14:29.381Z,16.05
2018-06-04T03:16:56.808Z,16.05
2018-06-04T03:19:23.834Z,16.10
2018-06-04T03:21:50.843Z,16.15
2018-06-04T03:24:17.965Z,16.10
2018-06-04T03:26:44.965Z,16.12
2018-06-04T03:29:11.979Z,16.10
2018-06-04T03:31:39.077Z,16.09
2018-06-04T03:34:06.093Z,16.13
2018-06-04T03:36:33.113Z,16.13
2018-06-04T03:39:00.217Z,16.14
2018-06-04T03:41:27.264Z,16.10
2018-06-04T03:43:54.373Z,16.11
2018-06-04T03:46:21.406Z,16.08
2018-06-04T03:48:48.414Z,16.08
2018-06-04T03:51:15.501Z,16.10
2018-06-04T03:53:42.596Z,16.18
2018-06-04T03:56:09.695Z,16.19
2018-06-04T03:58:36.970Z,16.19
2018-06-04T04:01:03.987Z,16.19
2018-06-04T04:03:32.571Z,16.19
2018-06-04T04:05:59.724Z,16.18
2018-06-04T04:08:28.073Z,16.18
2018-06-04T04:10:55.157Z,16.21
2018-06-04T04:13:23.548Z,16.18
2018-06-04T04:15:51.039Z,16.29
2018-06-04T04:18:18.061Z,16.30
2018-06-04T04:20:45.062Z,16.33
2018-06-04T04:23:12.070Z,16.25
2018-06-04T04:25:39.423Z,16.28
2018-06-04T04:28:06.456Z,16.28
2018-06-04T04:30:33.554Z,16.25
2018-06-04T04:33:00.574Z,16.25
2018-06-04T04:35:27.607Z,16.27
2018-06-04T04:37:54.628Z,16.16
2018-06-04T04:40:21.662Z,16.21
2018-06-04T04:42:48.667Z,16.28
2018-06-04T04:45:15.800Z,16.29
2018-06-04T04:47:42.805Z,16.34
2018-06-04T04:50:09.977Z,16.25
2018-06-04T04:52:37.082Z,16.30
2018-06-04T04:55:04.105Z,16.25
2018-06-04T04:57:31.237Z,16.22
2018-06-04T04:59:58.334Z,16.27
2018-06-04T05:02:25.310Z,16.29
2018-06-04T05:04:52.395Z,16.28
2018-06-04T05:07:19.488Z,16.25
2018-06-04T05:09:46.514Z,16.25
2018-06-04T05:12:13.633Z,16.25
2018-06-04T05:14:40.648Z,16.20
2018-06-04T05:17:07.738Z,16.24
2018-06-04T05:19:35.050Z,16.29
2018-06-04T05:22:02.118Z,16.23
2018-06-04T05:24:29.134Z,16.29
2018-06-04T05:26:56.325Z,16.28
2018-06-04T05:29:23.337Z,16.35
2018-06-04T05:31:50.494Z,16.32
2018-06-04T05:34:17.476Z,16.32
2018-06-04T05:36:44.491Z,16.33
2018-06-04T05:39:11.518Z,16.36
2018-06-04T05:41:38.616Z,16.38
2018-06-04T05:44:05.995Z,16.39
2018-06-04T05:46:33.002Z,16.32
2018-06-04T05:49:00.068Z,16.31
2018-06-04T05:51:27.182Z,16.34
2018-06-04T05:53:54.237Z,16.38
2018-06-04T05:56:21.254Z,16.43
2018-06-04T05:58:48.264Z,16.40
2018-06-04T06:01:15.395Z,16.45
2018-06-04T06:03:42.420Z,16.44
2018-06-04T06:06:09.547Z,16.45
2018-06-04T06:08:36.670Z,16.44
2018-06-04T06:11:03.717Z,16.46
2018-06-04T06:13:31.051Z,16.47
2018-06-04T06:15:58.099Z,16.45
2018-06-04T06:18:25.113Z,16.49
2018-06-04T06:20:52.117Z,16.52
2018-06-04T06:23:19.233Z,16.50
2018-06-04T06:25:46.338Z,16.47
2018-06-04T06:28:13.436Z,16.47
2018-06-04T06:30:40.554Z,16.49
2018-06-04T06:33:07.558Z,16.42
2018-06-04T06:35:34.575Z,16.45
2018-06-04T06:38:01.732Z,16.44
2018-06-04T06:40:28.889Z,16.41
2018-06-04T06:42:55.893Z,16.33
2018-06-04T06:45:22.917Z,16.41
2018-06-04T06:47:50.030Z,16.40
2018-06-04T06:50:17.052Z,16.33
2018-06-04T06:52:44.066Z,16.34
2018-06-04T06:55:11.127Z,16.31
2018-06-04T06:57:38.144Z,16.26
2018-06-04T07:00:05.404Z,16.33
2018-06-04T07:02:32.745Z,16.35
2018-06-04T07:04:59.826Z,16.26
2018-06-04T07:07:26.846Z,16.27
2018-06-04T07:09:53.855Z,16.27
2018-06-04T07:12:20.850Z,16.31
2018-06-04T07:14:48.369Z,16.35
2018-06-04T07:17:15.491Z,16.40
2018-06-04T07:19:43.105Z,16.39
2018-06-04T07:22:10.140Z,16.35
2018-06-04T07:24:37.199Z,16.36
2018-06-04T07:27:04.383Z,16.49
2018-06-04T07:29:31.480Z,16.59
2018-06-04T07:31:58.494Z,16.61
2018-06-04T07:34:25.500Z,16.75
2018-06-04T07:36:52.674Z,16.72
2018-06-04T07:39:19.994Z,16.81
2018-06-04T07:41:47.989Z,16.77
2018-06-04T07:44:15.101Z,16.75
2018-06-04T07:46:42.314Z,16.71
2018-06-04T07:49:09.335Z,16.70
2018-06-04T07:51:36.666Z,16.76
2018-06-04T07:54:03.795Z,16.71
2018-06-04T07:56:30.934Z,16.69
2018-06-04T07:58:57.977Z,16.70
2018-06-04T08:01:24.986Z,16.74
2018-06-04T08:03:52.105Z,16.73
2018-06-04T08:06:19.283Z,16.77
2018-06-04T08:08:46.268Z,16.75
2018-06-04T08:11:13.380Z,16.72
2018-06-04T08:13:40.490Z,16.77
2018-06-04T08:16:07.558Z,16.88
2018-06-04T08:18:34.581Z,17.25
2018-06-04T08:21:01.598Z,17.04
2018-06-04T08:23:28.811Z,17.01
2018-06-04T08:25:55.836Z,16.98
2018-06-04T08:28:22.998Z,16.99
2018-06-04T08:30:50.039Z,16.89
2018-06-04T08:33:17.165Z,16.77
2018-06-04T08:35:44.180Z,16.76
2018-06-04T08:38:11.204Z,16.75
2018-06-04T08:40:38.326Z,16.80
2018-06-04T08:43:05.346Z,16.80
2018-06-04T08:45:32.370Z,16.78
2018-06-04T08:47:59.485Z,16.78
2018-06-04T08:50:26.507Z,16.72
2018-06-04T08:52:53.518Z,16.70
2018-06-04T08:55:20.567Z,16.65
2018-06-04T08:57:47.573Z,16.71
2018-06-04T09:00:14.595Z,16.86
2018-06-04T09:02:41.737Z,16.86
2018-06-04T09:05:08.751Z,16.92
2018-06-04T09:07:35.775Z,16.95
2018-06-04T09:10:02.927Z,17.15
2018-06-04T09:12:29.966Z,17.00
2018-06-04T09:14:57.076Z,17.01
2018-06-04T09:17:24.578Z,16.92
2018-06-04T09:19:51.679Z,16.88
2018-06-04T09:22:18.715Z,17.00
2018-06-04T09:24:45.770Z,16.88
2018-06-04T09:27:12.786Z,16.89
2018-06-04T09:29:39.850Z,16.85
2018-06-04T09:32:06.880Z,16.88
2018-06-04T09:34:33.903Z,16.86
2018-06-04T09:37:00.915Z,16.92
2018-06-04T09:39:28.042Z,17.00
2018-06-04T09:41:55.073Z,16.92
2018-06-04T09:44:22.109Z,16.97
2018-06-04T09:46:49.234Z,16.93
2018-06-04T09:49:16.326Z,17.05
2018-06-04T09:51:43.445Z,17.00
2018-06-04T09:54:10.680Z,17.10
2018-06-04T09:56:37.693Z,17.10
2018-06-04T09:59:05.025Z,17.03
2018-06-04T10:01:32.145Z,17.08
2018-06-04T10:03:59.324Z,17.02
2018-06-04T10:06:26.334Z,16.95
2018-06-04T10:08:53.446Z,17.06
2018-06-04T10:11:20.468Z,17.01
2018-06-04T10:13:47.564Z,16.91
2018-06-04T10:16:14.693Z,16.87
2018-06-04T10:18:41.917Z,17.06
2018-06-04T10:21:08.953Z,16.95
2018-06-04T10:23:35.998Z,17.09
2018-06-04T10:26:03.122Z,17.11
2018-06-04T10:28:30.555Z,17.02
2018-06-04T10:30:57.584Z,17.01
2018-06-04T10:33:24.606Z,17.04
2018-06-04T10:35:51.811Z,17.10
2018-06-04T10:38:18.952Z,17.16
2018-06-04T10:40:46.130Z,17.13
2018-06-04T10:43:13.246Z,16.96
2018-06-04T10:45:40.306Z,16.94
2018-06-04T10:48:07.393Z,17.04
2018-06-04T10:50:34.565Z,17.25
2018-06-04T10:53:01.659Z,17.22
2018-06-04T10:55:28.795Z,17.15
2018-06-04T10:57:55.836Z,17.05
2018-06-04T11:00:22.871Z,17.23
2018-06-04T11:02:50.101Z,17.27
2018-06-04T11:05:17.198Z,17.25
2018-06-04T11:07:44.298Z,17.19
2018-06-04T11:10:11.334Z,17.25
2018-06-04T11:12:38.360Z,17.17
2018-06-04T11:15:05.796Z,16.95
2018-06-04T11:17:32.813Z,17.19
2018-06-04T11:19:59.863Z,17.18
2018-06-04T11:22:27.054Z,17.22
2018-06-04T11:24:54.082Z,17.30
2018-06-04T11:27:21.179Z,17.43
2018-06-04T11:29:48.182Z,17.41
2018-06-04T11:32:15.323Z,17.38
2018-06-04T11:34:42.502Z,17.34
2018-06-04T11:37:09.602Z,17.46
2018-06-04T11:39:36.753Z,17.60
2018-06-04T11:42:03.783Z,17.79
2018-06-04T11:44:30.988Z,17.59
2018-06-04T11:46:58.057Z,17.51
2018-06-04T11:49:25.149Z,17.72
2018-06-04T11:51:52.174Z,17.72
2018-06-04T11:54:19.267Z,17.73
2018-06-04T11:56:46.459Z,17.77
2018-06-04T11:59:13.561Z,17.78
2018-06-04T12:01:40.611Z,17.69
2018-06-04T12:04:07.633Z,17.73
2018-06-04T12:06:34.734Z,17.65
2018-06-04T12:09:01.854Z,17.67
2018-06-04T12:11:28.984Z,17.68
2018-06-04T12:13:56.157Z,17.67
2018-06-04T12:16:23.281Z,17.66
2018-06-04T12:18:50.309Z,17.65
2018-06-04T12:21:17.533Z,17.71
2018-06-04T12:23:44.555Z,17.76
2018-06-04T12:26:11.687Z,17.78
2018-06-04T12:28:38.701Z,17.66
2018-06-04T12:31:05.854Z,17.76
2018-06-04T12:33:32.917Z,17.84
2018-06-04T12:35:59.928Z,17.68
2018-06-04T12:38:27.035Z,17.82
2018-06-04T12:40:54.438Z,17.90
2018-06-04T12:43:21.484Z,17.87
2018-06-04T12:45:48.586Z,17.90
2018-06-04T12:48:15.719Z,17.90
2018-06-04T12:50:42.752Z,17.93
2018-06-04T12:53:09.777Z,17.93
2018-06-04T12:55:36.873Z,17.96
2018-06-04T12:58:03.949Z,17.98
2018-06-04T13:00:30.994Z,17.91
2018-06-04T13:02:58.013Z,17.97
2018-06-04T13:05:25.652Z,18.02
2018-06-04T13:07:52.676Z,18.12
2018-06-04T13:10:19.803Z,18.05
2018-06-04T13:12:47.007Z,18.01
2018-06-04T13:15:14.125Z,18.03
2018-06-04T13:17:41.140Z,17.90
2018-06-04T13:20:08.271Z,17.85
2018-06-04T13:22:35.381Z,17.90
2018-06-04T13:27:36.456Z,17.95
2018-06-04T13:30:03.649Z,17.92
2018-06-04T13:32:30.761Z,17.94
2018-06-04T13:34:57.812Z,18.07
2018-06-04T13:37:24.830Z,18.10
2018-06-04T13:39:51.948Z,18.18
2018-06-04T13:42:18.956Z,18.11
2018-06-04T13:44:46.057Z,18.19
2018-06-04T13:47:13.365Z,18.16
2018-06-04T13:49:40.544Z,18.19
2018-06-04T13:52:07.849Z,18.18
2018-06-04T13:54:34.969Z,18.11
2018-06-04T13:57:01.977Z,17.95
2018-06-04T13:59:28.988Z,18.00
2018-06-04T14:01:56.107Z,18.04
2018-06-04T14:04:23.131Z,17.99
2018-06-04T14:06:50.234Z,17.87
2018-06-04T14:09:17.270Z,17.88
2018-06-04T14:11:44.546Z,17.87
2018-06-04T14:14:11.557Z,17.85
2018-06-04T14:16:38.572Z,17.94
2018-06-04T14:19:05.738Z,17.95
2018-06-04T14:21:32.749Z,17.98
2018-06-04T14:23:59.851Z,18.04
2018-06-04T14:26:26.893Z,18.04
2018-06-04T14:28:54.010Z,18.12
2018-06-04T14:31:21.190Z,18.22
2018-06-04T14:33:48.350Z,18.26
2018-06-04T14:36:15.535Z,18.32
2018-06-04T14:38:42.645Z,18.27
2018-06-04T14:41:09.738Z,18.36
2018-06-04T14:43:36.740Z,18.24
2018-06-04T14:46:03.881Z,18.33
2018-06-04T14:48:30.934Z,18.20
2018-06-04T14:50:57.972Z,18.13
2018-06-04T14:53:25.025Z,18.10
2018-06-04T14:55:52.045Z,18.16
2018-06-04T14:58:19.233Z,18.23
2018-06-04T15:00:46.426Z,18.34
2018-06-04T15:03:13.545Z,18.35
2018-06-04T15:05:40.721Z,18.34
2018-06-04T15:08:07.733Z,18.38
2018-06-04T15:10:34.861Z,18.39
2018-06-04T15:13:01.884Z,18.38
2018-06-04T15:15:28.985Z,18.39
2018-06-04T15:17:56.209Z,18.29
2018-06-04T15:20:23.246Z,18.30
2018-06-04T15:22:50.271Z,18.18
2018-06-04T15:25:17.405Z,18.35
2018-06-04T15:27:44.454Z,18.21
2018-06-04T15:30:11.476Z,18.25
2018-06-04T15:32:38.644Z,18.24
2018-06-04T15:35:05.663Z,18.22
2018-06-04T15:37:32.771Z,18.19
2018-06-04T15:39:59.894Z,18.24
2018-06-04T15:42:27.084Z,18.11
2018-06-04T15:44:54.113Z,18.06
2018-06-04T15:47:21.265Z,18.12
2018-06-04T15:49:48.464Z,18.10
2018-06-04T15:52:15.489Z,18.08
2018-06-04T15:54:42.524Z,18.04
2018-06-04T15:57:09.630Z,17.95
2018-06-04T15:59:36.668Z,17.93
2018-06-04T16:02:03.843Z,17.82
2018-06-04T16:04:30.934Z,17.85
2018-06-04T16:06:58.127Z,17.96
2018-06-04T16:09:25.240Z,17.90
2018-06-04T16:11:52.343Z,17.82
2018-06-04T16:14:19.438Z,17.91
2018-06-04T16:16:46.921Z,17.94
2018-06-04T16:19:14.112Z,17.96
2018-06-04T16:21:41.212Z,17.85
2018-06-04T16:24:08.487Z,17.84
2018-06-04T16:26:35.723Z,17.76
2018-06-04T16:29:02.834Z,17.77
2018-06-04T16:31:29.873Z,17.78
2018-06-04T16:33:56.977Z,17.73
2018-06-04T16:36:24.125Z,17.68
2018-06-04T16:38:51.274Z,17.80
2018-06-04T16:41:18.314Z,17.72
2018-06-04T16:43:45.562Z,17.63
2018-06-04T16:46:12.784Z,17.72
2018-06-04T16:48:39.897Z,17.63
2018-06-04T16:51:07.014Z,17.80
2018-06-04T16:53:34.064Z,17.69
2018-06-04T16:56:01.103Z,17.61
2018-06-04T16:58:28.161Z,17.51
2018-06-04T17:00:55.177Z,17.45
2018-06-04T17:03:22.281Z,17.44
2018-06-04T17:05:49.385Z,17.47
2018-06-04T17:08:16.443Z,17.45
2018-06-04T17:10:43.544Z,17.35
2018-06-04T17:13:10.835Z,17.37
2018-06-04T17:15:37.925Z,17.44
2018-06-04T17:18:04.982Z,17.43
2018-06-04T17:20:32.110Z,17.46
2018-06-04T17:22:59.135Z,17.57
2018-06-04T17:25:26.155Z,17.57
2018-06-04T17:27:53.190Z,17.55
2018-06-04T17:30:21.517Z,17.49
2018-06-04T17:32:48.568Z,17.41
2018-06-04T17:35:15.593Z,17.50
2018-06-04T17:37:42.760Z,17.43
2018-06-04T17:40:09.916Z,17.43
2018-06-04T17:42:37.095Z,17.36
2018-06-04T17:45:06.010Z,17.51
2018-06-04T17:47:33.207Z,17.48
2018-06-04T17:50:00.397Z,17.44
2018-06-04T17:52:27.502Z,17.47
2018-06-04T17:54:54.526Z,17.40
2018-06-04T17:57:21.660Z,17.60
2018-06-04T17:59:48.825Z,17.61
2018-06-04T18:02:15.841Z,17.50
2018-06-04T18:04:43.021Z,17.53
2018-06-04T18:07:10.113Z,17.44
2018-06-04T18:09:37.197Z,17.32
2018-06-04T18:12:04.240Z,17.27
2018-06-04T18:14:31.264Z,17.33
2018-06-04T18:16:58.449Z,17.25
2018-06-04T18:19:25.582Z,17.31
2018-06-04T18:21:52.682Z,17.36
2018-06-04T18:24:19.865Z,17.16
2018-06-04T18:26:46.980Z,17.11
2018-06-04T18:29:14.078Z,17.19
2018-06-04T18:31:41.477Z,17.06
2018-06-04T18:34:08.589Z,17.02
2018-06-04T18:36:35.790Z,16.96
2018-06-04T18:39:04.738Z,16.87
2018-06-04T18:41:31.866Z,16.96
2018-06-04T18:43:58.976Z,16.97
2018-06-04T18:48:59.945Z,16.97
2018-06-04T18:51:26.971Z,17.02
2018-06-04T18:53:54.099Z,16.95
2018-06-04T18:56:21.203Z,17.00
2018-06-04T18:58:48.322Z,16.95
2018-06-04T19:01:15.454Z,16.95
2018-06-04T19:03:42.565Z,17.06
2018-06-04T19:06:09.565Z,17.19
2018-06-04T19:08:36.665Z,16.94
2018-06-04T19:11:03.710Z,16.93
2018-06-04T19:13:30.864Z,16.84
2018-06-04T19:15:57.901Z,16.83
2018-06-04T19:18:24.958Z,16.84
2018-06-04T19:20:52.066Z,16.86
2018-06-04T19:23:19.445Z,16.74
2018-06-04T19:25:46.534Z,16.84
2018-06-04T19:28:13.634Z,16.81
2018-06-04T19:30:40.656Z,16.79
2018-06-04T19:33:07.998Z,16.74
2018-06-04T19:35:35.004Z,16.71
2018-06-04T19:38:02.161Z,16.81
2018-06-04T19:40:29.325Z,16.82
2018-06-04T19:42:56.531Z,16.73
2018-06-04T19:45:23.585Z,16.71
2018-06-04T19:47:50.721Z,16.78
2018-06-04T19:50:17.751Z,16.65
2018-06-04T19:52:44.930Z,16.69
2018-06-04T19:55:11.945Z,16.75
2018-06-04T19:57:39.085Z,16.67
2018-06-04T20:00:06.121Z,16.67
2018-06-04T20:02:33.248Z,16.67
2018-06-04T20:05:00.338Z,16.75
2018-06-04T20:07:27.436Z,16.70
2018-06-04T20:09:54.505Z,16.71
2018-06-04T20:12:21.632Z,16.74
2018-06-04T20:14:48.766Z,16.69
2018-06-04T20:17:15.809Z,16.69
2018-06-04T20:19:42.822Z,16.67
2018-06-04T20:22:09.913Z,16.64
2018-06-04T20:24:37.174Z,16.59
2018-06-04T20:27:04.445Z,16.63
2018-06-04T20:29:31.463Z,16.62
2018-06-04T20:31:58.502Z,16.63
2018-06-04T20:34:25.617Z,16.68
2018-06-04T20:36:52.795Z,16.63
2018-06-04T20:39:20.011Z,16.67
2018-06-04T20:41:47.127Z,16.69
2018-06-04T20:44:14.225Z,16.71
2018-06-04T20:46:41.322Z,16.65
2018-06-04T20:49:08.433Z,16.69
2018-06-04T20:51:35.452Z,16.64
2018-06-04T20:54:02.511Z,16.59
2018-06-04T20:56:29.630Z,16.68
2018-06-04T20:58:56.814Z,16.62
2018-06-04T21:01:23.909Z,16.58
2018-06-04T21:03:51.011Z,16.57
2018-06-04T21:06:18.052Z,16.68
2018-06-04T21:08:45.189Z,16.68
2018-06-04T21:11:12.374Z,16.67
2018-06-04T21:13:39.422Z,16.68
2018-06-04T21:16:06.464Z,16.64
2018-06-04T21:18:33.570Z,16.68
2018-06-04T21:21:00.705Z,16.64
2018-06-04T21:23:27.791Z,16.68
2018-06-04T21:25:54.785Z,16.72
2018-06-04T21:28:21.917Z,16.68
2018-06-04T21:30:49.889Z,16.70
2018-06-04T21:33:16.927Z,16.71
2018-06-04T21:35:43.966Z,16.65
2018-06-04T21:38:11.100Z,16.61
2018-06-04T21:40:38.480Z,16.59
2018-06-04T21:43:05.515Z,16.65
2018-06-04T21:45:32.546Z,16.67
2018-06-04T21:47:59.581Z,16.63
2018-06-04T21:50:26.644Z,16.74
2018-06-04T21:52:53.669Z,16.69
2018-06-04T21:55:20.723Z,16.65
2018-06-04T21:57:47.826Z,16.68
2018-06-04T22:00:14.937Z,16.62
2018-06-04T22:02:41.946Z,16.63
2018-06-04T22:05:09.041Z,16.75
2018-06-04T22:07:36.051Z,16.63
2018-06-04T22:10:03.214Z,16.51
2018-06-04T22:12:30.265Z,16.52
2018-06-04T22:14:57.289Z,16.53
2018-06-04T22:17:24.394Z,16.70
2018-06-04T22:19:51.633Z,16.69
2018-06-04T22:22:18.831Z,16.70
2018-06-04T22:24:45.914Z,16.69
2018-06-04T22:27:13.114Z,16.62
2018-06-04T22:29:40.478Z,16.55
2018-06-04T22:32:07.593Z,16.54
2018-06-04T22:34:34.712Z,16.59
2018-06-04T22:37:01.727Z,16.60
2018-06-04T22:39:28.840Z,16.63
2018-06-04T22:41:56.057Z,16.48
2018-06-04T22:44:23.070Z,16.45
2018-06-04T22:46:50.076Z,16.45
2018-06-04T22:49:17.117Z,16.36
2018-06-04T22:51:44.242Z,16.38
2018-06-04T22:54:11.246Z,16.33
2018-06-04T22:56:38.354Z,16.43
2018-06-04T22:59:05.464Z,16.38
2018-06-04T23:01:32.481Z,16.39
2018-06-04T23:03:59.990Z,16.30
2018-06-04T23:06:27.004Z,16.33
2018-06-04T23:08:54.134Z,16.37
2018-06-04T23:11:21.159Z,16.33
2018-06-04T23:13:48.261Z,16.41
2018-06-04T23:16:15.286Z,16.41
2018-06-04T23:18:42.391Z,16.32
2018-06-04T23:21:09.429Z,16.29
2018-06-04T23:23:36.437Z,16.27
2018-06-04T23:26:03.465Z,16.23
2018-06-04T23:28:30.581Z,16.20
2018-06-04T23:30:57.593Z,16.13
2018-06-04T23:33:24.781Z,16.07
2018-06-04T23:35:51.970Z,16.00
2018-06-04T23:38:19.153Z,15.98
2018-06-04T23:40:46.152Z,15.91
2018-06-04T23:43:13.206Z,15.84
2018-06-04T23:45:40.538Z,15.76
2018-06-04T23:48:07.556Z,15.66
2018-06-04T23:50:34.710Z,15.63
2018-06-04T23:53:01.810Z,15.67
2018-06-04T23:55:28.920Z,15.60
2018-06-04T23:57:56.100Z,15.61
